Time;durP1;ratioP1;P1;durP2;ratioP2;P2;SDS_P1;SDS_P2;PMS_P1;PMS_P2;Temp;Humidity;BMP_temperature;BMP_pressure;BME280_temperature;BME280_humidity;BME280_pressure;Samples;Min_cycle;Max_cycle;Signal;HPM_P1;HPM_P2
2023/02/05 00:00:50;;;;;;;4.07;2.80;;;;;;;-4.92;100.00;93128.03;5070917;28;20044;-70
2023/02/05 00:03:17;;;;;;;8.00;5.15;;;;;;;-4.65;100.00;93124.31;5070718;28;20041;-70
2023/02/05 00:05:45;;;;;;;30.08;13.75;;;;;;;-4.63;100.00;93122.47;5070681;28;20048;-70
2023/02/05 00:08:12;;;;;;;13.02;6.45;;;;;;;-4.77;100.00;93127.75;5070515;28;20056;-69
2023/02/05 00:10:39;;;;;;;6.70;4.50;;;;;;;-4.68;100.00;93117.00;5070224;28;20455;-69
2023/02/05 00:13:07;;;;;;;5.53;4.00;;;;;;;-5.01;100.00;93119.50;5070904;28;20048;-69
2023/02/05 00:15:34;;;;;;;5.47;3.67;;;;;;;-5.04;100.00;93123.94;5070680;28;20049;-69
2023/02/05 00:18:01;;;;;;;5.25;3.65;;;;;;;-5.03;100.00;93143.06;5070385;28;20044;-70
2023/02/05 00:20:28;;;;;;;5.00;3.63;;;;;;;-4.76;100.00;93135.16;5070357;28;20493;-69
2023/02/05 00:22:56;;;;;;;4.78;3.65;;;;;;;-4.67;100.00;93148.69;5070137;28;20048;-69
2023/02/05 00:25:23;;;;;;;7.20;3.88;;;;;;;-5.03;100.00;93155.59;5070420;28;20051;-70
2023/02/05 00:27:50;;;;;;;4.45;3.25;;;;;;;-5.24;100.00;93153.78;5070493;28;20044;-70
2023/02/05 00:30:16;;;;;;;6.78;4.10;;;;;;;-5.20;100.00;93157.66;5070196;28;20044;-70
2023/02/05 00:32:43;;;;;;;5.38;3.80;;;;;;;-5.13;100.00;93153.78;5070780;28;20548;-70
2023/02/05 00:35:10;;;;;;;5.13;3.45;;;;;;;-5.15;100.00;93149.78;5070494;28;20436;-70
2023/02/05 00:37:37;;;;;;;5.13;3.90;;;;;;;-5.01;100.00;93158.78;5070327;28;20044;-70
2023/02/05 00:40:06;;;;;;;4.40;3.13;;;;;;;-5.11;100.00;93159.50;5070311;28;20045;-70
2023/02/05 00:42:32;;;;;;;5.57;3.50;;;;;;;-5.18;100.00;93153.34;5070371;28;20041;-70
2023/02/05 00:44:59;;;;;;;4.82;3.65;;;;;;;-5.03;100.00;93158.09;5070017;28;20044;-70
2023/02/05 00:47:26;;;;;;;6.20;3.92;;;;;;;-5.06;100.00;93160.84;5070317;28;20447;-69
2023/02/05 00:49:53;;;;;;;5.15;3.63;;;;;;;-5.38;100.00;93159.84;5069996;28;20044;-69
2023/02/05 00:52:20;;;;;;;5.65;3.40;;;;;;;-5.43;100.00;93170.19;5070119;28;20036;-69
2023/02/05 00:54:46;;;;;;;5.68;3.20;;;;;;;-5.45;100.00;93154.50;5069912;28;20113;-69
2023/02/05 00:57:15;;;;;;;6.78;4.25;;;;;;;-5.31;100.00;93158.47;5069937;28;20099;-70
2023/02/05 00:59:42;;;;;;;7.38;3.97;;;;;;;-5.15;100.00;93159.81;5070037;28;20454;-70
2023/02/05 01:02:09;;;;;;;7.32;3.90;;;;;;;-5.18;100.00;93170.09;5069828;28;20094;-69
2023/02/05 01:04:35;;;;;;;6.05;3.75;;;;;;;-5.18;100.00;93163.38;5069871;28;20090;-70
2023/02/05 01:07:02;;;;;;;6.13;3.92;;;;;;;-5.39;100.00;93163.25;5069834;28;20045;-69
2023/02/05 01:09:29;;;;;;;5.53;3.88;;;;;;;-5.36;100.00;93158.03;5069438;28;20094;-69
2023/02/05 01:11:55;;;;;;;7.43;4.93;;;;;;;-5.35;100.00;93159.63;5069473;28;20056;-69
2023/02/05 01:14:23;;;;;;;4.80;3.55;;;;;;;-5.23;100.00;93168.72;5069350;28;20041;-69
2023/02/05 01:16:50;;;;;;;7.93;4.38;;;;;;;-5.19;100.00;93151.75;5069285;28;20070;-70
2023/02/05 01:19:17;;;;;;;10.00;5.10;;;;;;;-5.07;100.00;93161.75;5069680;28;20048;-70
2023/02/05 01:21:44;;;;;;;6.97;4.53;;;;;;;-5.24;100.00;93162.13;5069582;28;20093;-70
2023/02/05 01:24:10;;;;;;;5.72;3.63;;;;;;;-5.47;100.00;93176.34;5069120;28;20461;-70
2023/02/05 01:26:37;;;;;;;5.18;3.63;;;;;;;-5.73;100.00;93165.75;5069351;28;20097;-70
2023/02/05 01:29:04;;;;;;;5.18;3.80;;;;;;;-5.82;100.00;93162.19;5069669;28;20102;-69
2023/02/05 01:31:32;;;;;;;6.15;3.95;;;;;;;-5.71;100.00;93163.91;5068873;28;20102;-70
2023/02/05 01:33:59;;;;;;;6.55;4.60;;;;;;;-5.72;100.00;93157.31;5069072;28;20049;-70
2023/02/05 01:36:25;;;;;;;4.90;3.72;;;;;;;-5.87;100.00;93156.75;5069309;28;20451;-70
2023/02/05 01:38:53;;;;;;;5.63;4.30;;;;;;;-5.90;100.00;93162.75;5068685;28;20076;-70
2023/02/05 01:41:20;;;;;;;6.50;4.55;;;;;;;-5.89;100.00;93159.34;5068920;28;20098;-70
2023/02/05 01:44:07;;;;;;;5.03;4.18;;;;;;;-5.92;100.00;93160.34;5069105;28;20050;-69
2023/02/05 01:46:37;;;;;;;5.75;3.85;;;;;;;-5.84;100.00;93161.53;5069051;28;20098;-70
2023/02/05 01:49:05;;;;;;;5.63;3.80;;;;;;;-5.94;100.00;93159.69;5069436;28;20443;-69
2023/02/05 01:51:35;;;;;;;5.38;3.95;;;;;;;-5.99;100.00;93155.91;5068726;28;20044;-69
2023/02/05 01:54:03;;;;;;;5.07;3.85;;;;;;;-6.05;100.00;93147.19;5069127;28;20488;-69
2023/02/05 01:56:33;;;;;;;6.45;4.32;;;;;;;-6.14;100.00;93141.16;5069438;28;20105;-69
2023/02/05 01:59:05;;;;;;;5.55;3.97;;;;;;;-6.23;100.00;93159.28;5069224;28;20057;-69
2023/02/05 02:01:32;;;;;;;5.43;3.88;;;;;;;-6.26;100.00;93164.53;5069297;28;20440;-69
2023/02/05 02:04:04;;;;;;;7.15;4.95;;;;;;;-6.29;100.00;93168.03;5068713;28;20053;-69
2023/02/05 02:06:32;;;;;;;5.97;4.28;;;;;;;-6.25;100.00;93168.63;5069196;28;20055;-69
2023/02/05 02:09:00;;;;;;;5.95;4.10;;;;;;;-6.26;100.00;93172.03;5068940;28;20049;-69
2023/02/05 02:11:28;;;;;;;6.15;4.35;;;;;;;-6.36;100.00;93180.16;5068174;28;20484;-69
2023/02/05 02:13:57;;;;;;;7.55;4.20;;;;;;;-6.25;100.00;93181.91;5068974;28;20139;-69
2023/02/05 02:16:26;;;;;;;6.97;4.28;;;;;;;-6.28;100.00;93171.31;5068725;28;20178;-69
2023/02/05 02:18:54;;;;;;;5.85;4.00;;;;;;;-6.27;100.00;93171.22;5068681;28;20570;-69
2023/02/05 02:21:45;;;;;;;6.88;4.50;;;;;;;-6.24;100.00;93185.22;5068686;28;20093;-69
2023/02/05 02:24:32;;;;;;;6.18;4.65;;;;;;;-6.22;100.00;93178.38;5068982;28;20049;-69
2023/02/05 02:27:32;;;;;;;5.60;3.67;;;;;;;-6.14;100.00;93186.16;5048036;28;20098;-69
2023/02/05 02:30:08;;;;;;;6.43;3.63;;;;;;;-6.17;100.00;93192.16;5051911;28;20049;-69
2023/02/05 02:32:39;;;;;;;5.28;3.65;;;;;;;-6.26;100.00;93190.31;5069092;28;20055;-69
2023/02/05 02:35:11;;;;;;;5.38;3.38;;;;;;;-6.24;100.00;93191.00;5073080;28;20102;-69
2023/02/05 02:37:45;;;;;;;6.45;4.03;;;;;;;-6.25;100.00;93203.63;5072718;28;20072;-69
2023/02/05 02:40:19;;;;;;;5.15;3.53;;;;;;;-6.35;100.00;93203.47;5072465;28;20055;-69
2023/02/05 02:42:52;;;;;;;6.28;3.72;;;;;;;-6.32;100.00;93199.06;5072494;28;20045;-69
2023/02/05 02:45:23;;;;;;;5.25;3.70;;;;;;;-6.35;100.00;93204.25;5072824;28;20094;-69
2023/02/05 02:47:54;;;;;;;5.15;3.40;;;;;;;-6.24;100.00;93197.72;5072613;28;20497;-69
2023/02/05 02:50:31;;;;;;;5.72;3.55;;;;;;;-6.14;100.00;93197.84;5072400;28;20045;-69
2023/02/05 02:53:01;;;;;;;7.13;3.55;;;;;;;-6.03;100.00;93205.38;5072285;28;20162;-69
2023/02/05 02:55:31;;;;;;;5.50;3.42;;;;;;;-6.13;100.00;93211.94;5072677;28;20059;-69
2023/02/05 02:58:01;;;;;;;5.47;3.47;;;;;;;-5.98;100.00;93213.31;5072147;28;20056;-69
2023/02/05 03:00:30;;;;;;;5.90;3.75;;;;;;;-6.09;100.00;93214.13;5072295;28;20550;-69
2023/02/05 03:03:02;;;;;;;6.88;3.92;;;;;;;-6.19;100.00;93215.69;5072278;28;20052;-69
2023/02/05 03:05:31;;;;;;;6.20;3.65;;;;;;;-6.01;100.00;93221.06;5072596;28;20044;-69
2023/02/05 03:08:01;;;;;;;7.57;4.18;;;;;;;-5.80;100.00;93220.41;5071966;28;20045;-69
2023/02/05 03:10:35;;;;;;;5.50;3.72;;;;;;;-5.71;100.00;93216.44;5072261;28;20048;-69
2023/02/05 03:13:02;;;;;;;5.13;3.65;;;;;;;-5.86;100.00;93214.16;5046995;28;20048;-69
2023/02/05 03:15:31;;;;;;;5.30;3.70;;;;;;;-5.74;100.00;93214.97;5072111;28;20089;-69
2023/02/05 03:17:58;;;;;;;3.95;3.08;;;;;;;-5.67;100.00;93221.16;5072323;28;20040;-69
2023/02/05 03:20:28;;;;;;;5.15;3.70;;;;;;;-5.57;100.00;93216.25;5072031;28;20137;-69
2023/02/05 03:22:55;;;;;;;9.00;5.15;;;;;;;-5.49;100.00;93218.22;5072039;28;20098;-69
2023/02/05 03:25:23;;;;;;;10.25;6.70;;;;;;;-5.37;100.00;93214.81;5072192;28;20045;-69
2023/02/05 03:27:53;;;;;;;7.60;4.47;;;;;;;-5.34;100.00;93220.50;5072233;28;20044;-69
2023/02/05 03:30:21;;;;;;;4.93;3.75;;;;;;;-5.54;100.00;93220.25;5072046;28;20044;-69
2023/02/05 03:33:02;;;;;;;6.07;3.70;;;;;;;-5.32;100.00;93217.00;5072022;28;20048;-69
2023/02/05 03:35:38;;;;;;;5.63;3.60;;;;;;;-5.54;100.00;93222.75;5071218;28;20090;-69
2023/02/05 03:38:20;;;;;;;4.95;3.55;;;;;;;-5.68;100.00;93208.75;5071577;28;20048;-69
2023/02/05 03:40:51;;;;;;;5.07;3.42;;;;;;;-5.77;100.00;93216.03;5071529;28;20048;-69
2023/02/05 03:43:32;;;;;;;6.10;3.70;;;;;;;-6.02;100.00;93221.94;5071400;28;20489;-69
2023/02/05 03:46:03;;;;;;;4.75;3.72;;;;;;;-6.00;100.00;93217.66;5070229;28;20044;-69
2023/02/05 03:48:43;;;;;;;5.13;3.47;;;;;;;-6.17;100.00;93213.88;5071248;28;20045;-69
2023/02/05 03:51:22;;;;;;;4.90;3.28;;;;;;;-6.23;100.00;93200.09;5071079;28;20053;-69
2023/02/05 03:53:59;;;;;;;7.22;5.68;;;;;;;-6.20;100.00;93214.88;5071551;28;20080;-69
2023/02/05 03:56:32;;;;;;;8.60;6.05;;;;;;;-6.22;100.00;93209.19;5071240;28;20052;-69
2023/02/05 03:59:01;;;;;;;5.22;3.90;;;;;;;-6.54;100.00;93204.72;5071450;28;20052;-69
2023/02/05 04:01:28;;;;;;;5.95;4.03;;;;;;;-6.64;100.00;93209.56;5070786;28;20044;-69
2023/02/05 04:03:57;;;;;;;5.57;3.88;;;;;;;-6.67;100.00;93209.78;5071231;28;20045;-69
2023/02/05 04:06:23;;;;;;;6.05;4.32;;;;;;;-6.75;100.00;93215.28;5044768;28;20040;-69
2023/02/05 04:08:50;;;;;;;5.30;3.92;;;;;;;-6.66;100.00;93220.56;5071069;28;20048;-68
2023/02/05 04:11:17;;;;;;;4.90;3.42;;;;;;;-6.68;100.00;93220.69;5070760;28;20090;-69
2023/02/05 04:13:44;;;;;;;12.85;7.68;;;;;;;-6.80;100.00;93211.53;5070697;28;20052;-69
2023/02/05 04:16:10;;;;;;;10.63;6.10;;;;;;;-6.89;100.00;93211.22;5071121;28;20051;-69
2023/02/05 04:18:37;;;;;;;7.22;4.47;;;;;;;-6.78;100.00;93222.19;5070611;28;20118;-68
2023/02/05 04:21:06;;;;;;;13.68;8.30;;;;;;;-6.80;100.00;93221.53;5070841;28;20044;-69
2023/02/05 04:23:32;;;;;;;9.35;4.93;;;;;;;-6.80;100.00;93224.81;5070576;28;20459;-69
2023/02/05 04:25:59;;;;;;;7.60;4.65;;;;;;;-6.81;100.00;93227.41;5070975;28;20066;-69
2023/02/05 04:28:26;;;;;;;4.95;4.10;;;;;;;-6.73;100.00;93220.19;5070840;28;20090;-69
2023/02/05 04:30:52;;;;;;;13.25;7.80;;;;;;;-6.71;100.00;93220.91;5070486;28;20052;-68
2023/02/05 04:33:19;;;;;;;9.68;5.38;;;;;;;-6.62;100.00;93230.25;5070812;28;20045;-68
2023/02/05 04:35:46;;;;;;;11.63;6.93;;;;;;;-6.66;100.00;93228.88;5070674;28;20094;-68
2023/02/05 04:38:14;;;;;;;12.38;7.15;;;;;;;-6.68;100.00;93227.38;5070667;28;20396;-68
2023/02/05 04:40:41;;;;;;;9.85;5.53;;;;;;;-6.82;100.00;93234.09;5070791;28;20048;-69
2023/02/05 04:43:07;;;;;;;10.95;6.93;;;;;;;-6.90;100.00;93234.63;5070180;28;20048;-69
2023/02/05 04:45:36;;;;;;;11.10;5.88;;;;;;;-6.88;100.00;93227.84;5070416;28;20083;-69
2023/02/05 04:48:05;;;;;;;13.90;7.90;;;;;;;-6.88;100.00;93232.03;5070452;28;20044;-68
2023/02/05 04:50:32;;;;;;;11.00;5.80;;;;;;;-6.96;100.00;93234.25;5069906;28;20102;-69
2023/02/05 04:53:00;;;;;;;8.63;5.97;;;;;;;-6.96;100.00;93229.25;5070129;28;20040;-69
2023/02/05 04:55:29;;;;;;;9.75;6.15;;;;;;;-7.00;100.00;93238.63;5069928;28;20131;-69
2023/02/05 04:57:56;;;;;;;7.25;4.30;;;;;;;-6.99;100.00;93235.25;5069572;28;20398;-69
2023/02/05 05:00:23;;;;;;;7.70;4.68;;;;;;;-7.03;100.00;93232.16;5069850;28;20044;-69
2023/02/05 05:02:50;;;;;;;6.03;4.32;;;;;;;-7.14;100.00;93232.88;5070046;28;20109;-68
2023/02/05 05:05:16;;;;;;;5.22;3.88;;;;;;;-7.06;100.00;93239.84;5070099;28;20125;-68
2023/02/05 05:07:43;;;;;;;6.75;4.25;;;;;;;-7.07;100.00;93233.25;5069460;28;20106;-68
2023/02/05 05:10:12;;;;;;;6.70;4.00;;;;;;;-7.17;100.00;93220.56;5069708;28;20044;-68
2023/02/05 05:12:40;;;;;;;11.63;6.68;;;;;;;-7.30;100.00;93230.59;5070007;28;20086;-68
2023/02/05 05:15:08;;;;;;;6.63;3.50;;;;;;;-7.22;100.00;93247.56;5069833;28;20049;-68
2023/02/05 05:17:35;;;;;;;5.68;3.70;;;;;;;-7.22;100.00;93241.78;5069413;28;20090;-68
2023/02/05 05:20:02;;;;;;;5.45;3.90;;;;;;;-7.22;100.00;93249.25;5069544;28;20044;-68
2023/02/05 05:22:29;;;;;;;5.78;3.60;;;;;;;-7.13;100.00;93254.44;5069386;28;20447;-69
2023/02/05 05:24:55;;;;;;;10.55;6.22;;;;;;;-7.14;100.00;93259.53;5069422;28;20086;-69
2023/02/05 05:27:23;;;;;;;6.18;3.53;;;;;;;-7.27;100.00;93255.34;5069804;28;20110;-69
2023/02/05 05:29:51;;;;;;;6.40;3.83;;;;;;;-7.20;100.00;93260.75;5069432;28;20086;-69
2023/02/05 05:32:18;;;;;;;8.48;4.20;;;;;;;-7.23;100.00;93250.16;5069254;28;20513;-68
2023/02/05 05:34:45;;;;;;;7.95;4.47;;;;;;;-7.22;100.00;93262.56;5069749;28;20045;-68
2023/02/05 05:37:11;;;;;;;7.30;4.07;;;;;;;-7.18;100.00;93268.91;5058059;28;20048;-69
2023/02/05 05:45:08;;;;;;;12.25;7.38;;;;;;;-7.26;100.00;93271.91;5069335;28;20059;-69
2023/02/05 05:47:35;;;;;;;8.45;5.65;;;;;;;-7.16;100.00;93274.63;5069021;28;20040;-69
2023/02/05 05:50:01;;;;;;;7.25;4.80;;;;;;;-7.23;100.00;93270.13;5069068;28;20045;-68
2023/02/05 05:52:28;;;;;;;12.85;6.80;;;;;;;-7.18;100.00;93280.63;5043060;28;20048;-69
2023/02/05 05:54:55;;;;;;;9.10;5.60;;;;;;;-7.14;100.00;93285.28;5068312;28;20554;-69
2023/02/05 05:57:21;;;;;;;6.53;4.20;;;;;;;-7.09;100.00;93292.47;5056022;28;20105;-68
2023/02/05 05:59:48;;;;;;;10.38;6.72;;;;;;;-7.09;100.00;93294.19;5068982;28;20056;-69
2023/02/05 06:02:16;;;;;;;8.40;4.55;;;;;;;-7.11;100.00;93294.28;5042237;28;20056;-69
2023/02/05 06:04:43;;;;;;;12.43;5.70;;;;;;;-7.26;100.00;93299.38;5069226;28;20511;-68
2023/02/05 06:07:09;;;;;;;12.73;7.28;;;;;;;-7.24;100.00;93301.75;5068733;28;20052;-68
2023/02/05 06:09:36;;;;;;;7.38;4.57;;;;;;;-7.31;100.00;93298.09;5068653;28;20976;-68
2023/02/05 06:12:03;;;;;;;10.18;7.03;;;;;;;-7.16;100.00;93294.59;5069160;28;20040;-69
2023/02/05 06:14:30;;;;;;;11.48;7.03;;;;;;;-7.09;100.00;93301.69;5068633;28;20113;-69
2023/02/05 06:16:56;;;;;;;16.60;9.52;;;;;;;-6.92;100.00;93308.84;5069185;28;20048;-69
2023/02/05 06:19:24;;;;;;;36.17;17.98;;;;;;;-6.92;100.00;93318.84;5068620;28;20114;-69
2023/02/05 06:21:51;;;;;;;9.77;5.57;;;;;;;-7.01;100.00;93316.94;5068352;28;20106;-69
2023/02/05 06:24:18;;;;;;;7.97;4.78;;;;;;;-7.02;100.00;93311.16;5068917;28;20044;-69
2023/02/05 06:26:45;;;;;;;7.47;4.63;;;;;;;-7.12;100.00;93320.94;5069077;28;20134;-69
2023/02/05 06:29:11;;;;;;;16.10;9.88;;;;;;;-7.14;100.00;93322.75;5068467;28;20477;-69
2023/02/05 06:31:38;;;;;;;14.75;8.82;;;;;;;-7.02;100.00;93327.84;5068364;28;20111;-69
2023/02/05 06:34:05;;;;;;;18.33;10.50;;;;;;;-7.04;100.00;93322.94;5068583;28;20048;-69
2023/02/05 06:36:33;;;;;;;12.10;7.85;;;;;;;-7.00;100.00;93324.34;5068244;28;20056;-69
2023/02/05 06:38:59;;;;;;;16.02;9.50;;;;;;;-6.99;100.00;93340.13;5068842;28;20098;-69
2023/02/05 06:41:26;;;;;;;19.15;9.55;;;;;;;-6.93;100.00;93332.25;5068010;28;20074;-69
2023/02/05 06:43:53;;;;;;;14.45;7.43;;;;;;;-6.87;100.00;93329.34;5068784;28;20451;-69
2023/02/05 06:46:19;;;;;;;11.07;6.50;;;;;;;-6.99;100.00;93330.16;5068461;28;20102;-69
2023/02/05 06:48:46;;;;;;;11.60;6.07;;;;;;;-6.88;100.00;93331.94;5068637;28;20052;-69
2023/02/05 06:51:13;;;;;;;22.63;11.35;;;;;;;-6.90;100.00;93339.50;5068212;28;20052;-69
2023/02/05 06:53:42;;;;;;;7.30;5.25;;;;;;;-6.98;100.00;93337.50;5068630;28;20049;-69
2023/02/05 06:56:09;;;;;;;8.40;5.30;;;;;;;-6.92;100.00;93338.00;5068288;28;20048;-69
2023/02/05 06:58:35;;;;;;;21.65;10.98;;;;;;;-6.96;100.00;93341.63;5068388;28;20737;-69
2023/02/05 07:01:02;;;;;;;9.32;5.55;;;;;;;-7.01;100.00;93339.41;5068320;28;20044;-69
2023/02/05 07:03:29;;;;;;;8.65;5.38;;;;;;;-7.03;100.00;93331.22;5064697;28;20874;-69
2023/02/05 07:05:56;;;;;;;26.15;12.60;;;;;;;-7.17;100.00;93335.41;5047698;28;20049;-69
2023/02/05 07:08:22;;;;;;;10.82;6.47;;;;;;;-7.21;100.00;93336.53;5050370;28;20386;-69
2023/02/05 07:10:50;;;;;;;8.02;3.90;;;;;;;-7.36;100.00;93328.34;5049147;28;20049;-69
2023/02/05 07:13:17;;;;;;;10.82;6.20;;;;;;;-7.32;100.00;93331.44;5063506;28;20098;-69
2023/02/05 07:15:44;;;;;;;11.73;8.20;;;;;;;-7.31;100.00;93336.31;5063361;28;20127;-69
2023/02/05 07:18:11;;;;;;;15.00;9.13;;;;;;;-7.29;100.00;93336.22;5067952;28;20058;-69
2023/02/05 07:20:38;;;;;;;14.95;8.90;;;;;;;-7.23;100.00;93357.50;5070177;28;20500;-69
2023/02/05 07:23:05;;;;;;;13.65;7.45;;;;;;;-7.32;100.00;93341.41;5060104;28;20110;-69
2023/02/05 07:25:35;;;;;;;10.77;6.72;;;;;;;-7.29;100.00;93337.03;5071372;28;20109;-69
2023/02/05 07:28:03;;;;;;;16.13;9.15;;;;;;;-7.21;100.00;93349.00;5071448;28;20051;-69
2023/02/05 07:30:30;;;;;;;13.73;7.05;;;;;;;-7.14;100.00;93345.22;5071845;28;20037;-69
2023/02/05 07:32:56;;;;;;;11.13;6.72;;;;;;;-7.19;100.00;93351.41;5071611;28;20094;-69
2023/02/05 07:35:23;;;;;;;13.05;8.60;;;;;;;-7.32;100.00;93339.69;5071255;28;20044;-69
2023/02/05 07:37:50;;;;;;;6.07;4.18;;;;;;;-7.13;100.00;93359.28;5071467;28;20052;-69
2023/02/05 07:40:17;;;;;;;7.68;5.40;;;;;;;-7.17;100.00;93350.38;5059214;28;20049;-69
2023/02/05 07:42:43;;;;;;;8.23;5.93;;;;;;;-7.03;100.00;93371.19;5071532;28;20489;-69
2023/02/05 07:45:11;;;;;;;10.63;5.95;;;;;;;-6.93;100.00;93366.38;5071232;28;20048;-69
2023/02/05 07:47:38;;;;;;;7.68;5.35;;;;;;;-6.97;100.00;93375.78;5071446;28;20451;-69
2023/02/05 07:50:06;;;;;;;9.82;6.03;;;;;;;-6.84;100.00;93379.06;5071238;28;20060;-69
2023/02/05 07:52:33;;;;;;;12.95;7.43;;;;;;;-6.75;100.00;93377.66;5071479;28;20049;-69
2023/02/05 07:55:00;;;;;;;21.88;11.63;;;;;;;-6.79;100.00;93377.97;5071091;28;20110;-69
2023/02/05 07:57:26;;;;;;;12.18;6.82;;;;;;;-6.84;100.00;93386.56;5068886;28;20098;-69
2023/02/05 07:59:53;;;;;;;10.15;6.63;;;;;;;-6.94;100.00;93400.56;5057350;28;20052;-69
2023/02/05 08:02:21;;;;;;;9.30;6.07;;;;;;;-6.95;100.00;93393.94;5071411;28;20098;-69
2023/02/05 08:04:48;;;;;;;13.93;7.82;;;;;;;-6.79;100.00;93393.78;5071055;28;20044;-69
2023/02/05 08:07:15;;;;;;;12.55;8.48;;;;;;;-6.61;100.00;93403.47;5071017;28;20044;-69
2023/02/05 08:09:41;;;;;;;7.53;5.32;;;;;;;-6.55;100.00;93404.75;5071349;28;20097;-69
2023/02/05 08:12:08;;;;;;;6.93;4.32;;;;;;;-6.76;100.00;93390.28;5070637;28;20074;-69
2023/02/05 08:14:36;;;;;;;8.35;4.72;;;;;;;-6.65;100.00;93409.56;5059894;28;20041;-69
2023/02/05 08:17:04;;;;;;;5.80;4.25;;;;;;;-6.78;100.00;93405.38;5071034;28;20124;-69
2023/02/05 08:19:32;;;;;;;7.75;4.90;;;;;;;-6.78;100.00;93417.03;5071078;28;20106;-69
2023/02/05 08:21:59;;;;;;;7.30;4.65;;;;;;;-6.89;100.00;93406.03;5070064;28;20048;-69
2023/02/05 08:24:26;;;;;;;14.50;8.52;;;;;;;-6.74;100.00;93411.75;5071130;28;20083;-69
2023/02/05 08:26:53;;;;;;;7.60;5.43;;;;;;;-6.71;100.00;93420.75;5070597;28;20040;-69
2023/02/05 08:29:19;;;;;;;8.32;5.97;;;;;;;-6.61;100.00;93421.72;5070719;28;20639;-69
2023/02/05 08:31:46;;;;;;;7.90;6.28;;;;;;;-6.60;100.00;93423.34;5069894;28;20049;-69
2023/02/05 08:34:13;;;;;;;15.98;9.85;;;;;;;-6.58;100.00;93420.72;5070262;28;20120;-69
2023/02/05 08:36:41;;;;;;;11.68;7.32;;;;;;;-6.38;100.00;93426.13;5070834;28;20110;-69
2023/02/05 08:39:08;;;;;;;31.90;18.83;;;;;;;-6.37;100.00;93428.53;5070310;28;20094;-69
2023/02/05 08:41:36;;;;;;;5.57;4.00;;;;;;;-6.54;100.00;93433.84;5070233;28;20083;-69
2023/02/05 08:44:03;;;;;;;9.90;5.68;;;;;;;-6.55;100.00;93445.53;5070477;28;20048;-69
2023/02/05 08:46:30;;;;;;;8.27;4.72;;;;;;;-6.55;100.00;93435.53;5070328;28;20550;-69
2023/02/05 08:48:56;;;;;;;6.20;4.10;;;;;;;-6.46;100.00;93444.13;5070457;28;20131;-69
2023/02/05 08:51:23;;;;;;;9.13;5.80;;;;;;;-6.20;100.00;93449.91;5069756;28;20074;-69
2023/02/05 08:53:52;;;;;;;7.65;5.20;;;;;;;-6.06;100.00;93458.97;5060903;28;20052;-69
2023/02/05 08:56:19;;;;;;;5.40;3.70;;;;;;;-6.12;100.00;93461.91;5066627;28;20040;-69
2023/02/05 08:58:46;;;;;;;7.03;3.85;;;;;;;-6.18;100.00;93465.63;5069974;28;20057;-69
2023/02/05 09:01:15;;;;;;;5.53;3.90;;;;;;;-6.08;100.00;93480.00;5069965;28;20106;-69
2023/02/05 09:03:42;;;;;;;208.80;88.53;;;;;;;-6.19;100.00;93476.53;5069730;28;20785;-69
2023/02/05 09:06:11;;;;;;;6.03;3.70;;;;;;;-6.18;100.00;93483.13;5069990;28;20041;-69
2023/02/05 09:08:38;;;;;;;5.28;3.83;;;;;;;-6.13;100.00;93482.81;5070062;28;20114;-69
2023/02/05 09:11:07;;;;;;;4.25;2.90;;;;;;;-6.17;100.00;93488.91;5069935;28;20044;-69
2023/02/05 09:13:34;;;;;;;5.03;3.13;;;;;;;-6.07;100.00;93486.63;5060424;28;20037;-69
2023/02/05 09:16:01;;;;;;;4.10;2.85;;;;;;;-6.04;100.00;93492.22;5068034;28;20095;-69
2023/02/05 09:18:27;;;;;;;5.55;3.90;;;;;;;-6.12;100.00;93486.91;5070008;28;20040;-69
2023/02/05 09:20:54;;;;;;;8.15;5.50;;;;;;;-6.07;100.00;93504.13;5069530;28;20052;-69
2023/02/05 09:23:21;;;;;;;95.97;43.30;;;;;;;-6.01;100.00;93502.88;5069331;28;20040;-69
2023/02/05 09:25:48;;;;;;;6.53;4.30;;;;;;;-5.97;100.00;93502.56;5069845;28;20122;-69
2023/02/05 09:28:16;;;;;;;9.35;5.43;;;;;;;-6.11;100.00;93507.72;5068906;28;20563;-69
2023/02/05 09:30:45;;;;;;;11.15;7.15;;;;;;;-6.01;100.00;93517.88;5069728;28;20464;-69
2023/02/05 09:33:13;;;;;;;8.45;4.65;;;;;;;-6.00;100.00;93529.47;5068895;28;20118;-69
2023/02/05 09:35:40;;;;;;;6.93;3.88;;;;;;;-6.04;100.00;93531.41;5069248;28;20508;-69
2023/02/05 09:38:06;;;;;;;7.28;4.13;;;;;;;-6.05;100.00;93530.63;5069203;28;20040;-69
2023/02/05 09:40:38;;;;;;;6.65;3.90;;;;;;;-6.04;100.00;93531.41;5068990;28;20110;-69
2023/02/05 09:43:22;;;;;;;15.32;9.38;;;;;;;-6.08;100.00;93540.03;5068412;28;20455;-69
2023/02/05 09:45:57;;;;;;;11.48;6.63;;;;;;;-6.05;100.00;93527.31;5069271;28;20056;-69
2023/02/05 09:48:48;;;;;;;7.07;4.72;;;;;;;-6.05;100.00;93539.84;5063993;28;20036;-69
2023/02/05 09:51:17;;;;;;;7.97;3.67;;;;;;;-6.04;100.00;93526.41;5060700;28;20044;-69
2023/02/05 09:53:48;;;;;;;10.65;5.20;;;;;;;-5.96;100.00;93516.69;5069049;28;20439;-69
2023/02/05 09:56:17;;;;;;;9.85;6.07;;;;;;;-6.04;100.00;93514.72;5068479;28;20044;-69
2023/02/05 09:58:49;;;;;;;12.52;7.38;;;;;;;-6.15;100.00;93531.31;5069107;28;20492;-69
2023/02/05 10:01:22;;;;;;;26.98;15.65;;;;;;;-6.13;100.00;93530.31;5068715;28;20052;-69
2023/02/05 10:03:54;;;;;;;9.55;5.63;;;;;;;-5.85;100.00;93527.66;5069245;28;20044;-69
2023/02/05 10:06:45;;;;;;;5.95;3.20;;;;;;;-5.97;100.00;93539.31;5068902;28;20092;-69
2023/02/05 10:09:32;;;;;;;8.48;5.70;;;;;;;-5.96;100.00;93525.88;5068532;28;20052;-69
2023/02/05 10:12:06;;;;;;;6.22;4.00;;;;;;;-5.93;100.00;93523.97;5069126;28;20102;-69
2023/02/05 10:14:48;;;;;;;12.18;7.78;;;;;;;-5.67;100.00;93526.44;5056562;28;20125;-69
2023/02/05 10:17:28;;;;;;;5.63;4.32;;;;;;;-5.82;100.00;93533.28;5068192;28;20516;-69
2023/02/05 10:20:09;;;;;;;5.43;3.78;;;;;;;-5.63;100.00;93537.06;5068470;28;20094;-69
2023/02/05 10:22:45;;;;;;;4.78;3.10;;;;;;;-5.72;100.00;93530.16;5068642;28;20048;-69
2023/02/05 10:25:41;;;;;;;4.65;3.55;;;;;;;-5.84;100.00;93542.56;5068879;28;20110;-69
2023/02/05 10:28:24;;;;;;;34.40;14.02;;;;;;;-5.82;100.00;93538.28;5048527;28;20060;-69
2023/02/05 10:30:58;;;;;;;8.32;5.43;;;;;;;-5.70;100.00;93541.66;5068608;28;20045;-69
2023/02/05 10:33:40;;;;;;;5.07;3.70;;;;;;;-5.69;100.00;93540.75;5068792;28;20048;-69
2023/02/05 10:36:09;;;;;;;8.40;5.60;;;;;;;-5.74;100.00;93537.75;5068921;28;20044;-69
2023/02/05 10:38:41;;;;;;;4.57;3.03;;;;;;;-5.50;100.00;93539.53;5068677;28;20572;-69
2023/02/05 10:41:15;;;;;;;4.68;3.08;;;;;;;-5.85;100.00;93540.97;5068808;28;20060;-69
2023/02/05 10:43:48;;;;;;;7.63;4.70;;;;;;;-5.54;100.00;93535.63;5042073;28;20060;-69
2023/02/05 10:46:17;;;;;;;6.30;4.35;;;;;;;-5.74;100.00;93542.75;5068090;28;20049;-69
2023/02/05 10:48:46;;;;;;;7.00;5.05;;;;;;;-5.57;100.00;93523.31;5069020;28;20044;-69
2023/02/05 10:51:16;;;;;;;7.88;5.20;;;;;;;-5.63;100.00;93532.84;5068090;28;20094;-69
2023/02/05 10:53:43;;;;;;;13.25;8.82;;;;;;;-5.53;100.00;93524.72;5069282;28;20091;-69
2023/02/05 10:56:16;;;;;;;9.52;6.05;;;;;;;-5.81;100.00;93509.88;5072593;28;20056;-69
2023/02/05 10:58:51;;;;;;;5.75;3.90;;;;;;;-5.60;100.00;93531.81;5072043;28;20570;-69
2023/02/05 11:01:21;;;;;;;10.90;4.90;;;;;;;-5.32;100.00;93531.66;5069610;28;20558;-69
2023/02/05 11:03:54;;;;;;;7.20;4.75;;;;;;;-5.41;100.00;93528.88;5057288;28;20390;-69
2023/02/05 11:06:22;;;;;;;12.30;7.53;;;;;;;-5.71;100.00;93531.75;5072278;28;20048;-69
2023/02/05 11:08:48;;;;;;;8.25;5.32;;;;;;;-5.44;100.00;93526.59;5059501;28;20451;-69
2023/02/05 11:11:22;;;;;;;10.63;6.20;;;;;;;-5.31;100.00;93521.56;5071094;28;20098;-69
2023/02/05 11:13:53;;;;;;;16.13;8.45;;;;;;;-5.17;100.00;93528.13;5060916;28;20049;-69
2023/02/05 11:16:23;;;;;;;9.63;5.82;;;;;;;-5.23;100.00;93521.81;5071738;28;20041;-69
2023/02/05 11:18:58;;;;;;;8.93;3.95;;;;;;;-5.59;100.00;93530.13;5072054;28;20049;-69
2023/02/05 11:21:45;;;;;;;13.18;7.00;;;;;;;-5.34;100.00;93516.75;5072238;28;20056;-69
2023/02/05 11:24:22;;;;;;;10.98;6.47;;;;;;;-5.55;100.00;93529.03;5072416;28;20048;-69
2023/02/05 11:26:49;;;;;;;13.85;6.72;;;;;;;-5.67;100.00;93508.13;5071735;28;20044;-69
2023/02/05 11:29:19;;;;;;;8.95;5.70;;;;;;;-5.66;100.00;93514.72;5071665;28;20041;-69
2023/02/05 11:31:47;;;;;;;15.15;8.75;;;;;;;-5.77;100.00;93513.75;5071608;28;20049;-69
2023/02/05 11:34:18;;;;;;;19.38;8.93;;;;;;;-5.75;100.00;93498.63;5071351;28;20105;-69
2023/02/05 11:36:52;;;;;;;9.65;6.40;;;;;;;-5.69;100.00;93519.94;5071626;28;20053;-69